Time;durP1;ratioP1;P1;durP2;ratioP2;P2;SDS_P1;SDS_P2;PMS_P1;PMS_P2;Temp;Humidity;BMP_temperature;BMP_pressure;BME280_temperature;BME280_humidity;BME280_pressure;Samples;Min_cycle;Max_cycle;Signal;HPM_P1;HPM_P2
2023/09/22 00:00:15;;;;;;;0.50;0.50;;;;;;;17.83;87.82;97469.72;5114153;27;41575;-86
2023/09/22 00:02:43;;;;;;;0.40;0.40;;;;;;;17.83;87.81;97475.09;5113687;27;42342;-85
2023/09/22 00:05:12;;;;;;;1.40;0.40;;;;;;;17.62;87.42;97453.41;5131597;27;40014;-85
2023/09/22 00:07:41;;;;;;;0.70;0.57;;;;;;;17.80;88.15;97486.16;5113969;27;40742;-85
2023/09/22 00:10:12;;;;;;;0.30;0.30;;;;;;;17.74;87.87;97481.50;5131416;27;42748;-85
2023/09/22 00:12:40;;;;;;;0.40;0.40;;;;;;;17.62;88.13;97464.13;5114414;27;42376;-86
2023/09/22 00:15:08;;;;;;;0.70;0.40;;;;;;;17.58;88.00;97461.78;5132501;27;38873;-86
2023/09/22 00:17:36;;;;;;;0.63;0.40;;;;;;;17.51;88.33;97451.94;5133274;27;41811;-87
2023/09/22 00:20:07;;;;;;;2.20;0.40;;;;;;;17.56;88.61;97477.16;5131934;27;43606;-87
2023/09/22 00:22:35;;;;;;;0.60;0.30;;;;;;;17.60;88.17;97502.59;5114916;27;42161;-88
2023/09/22 00:25:06;;;;;;;0.50;0.50;;;;;;;17.51;87.96;97492.94;5131955;27;40681;-87
2023/09/22 00:27:34;;;;;;;0.53;0.50;;;;;;;17.57;88.33;97507.44;5114848;27;40557;-87
2023/09/22 00:30:03;;;;;;;0.50;0.50;;;;;;;17.50;87.83;97496.63;5114974;27;42968;-88
2023/09/22 00:32:33;;;;;;;1.40;0.40;;;;;;;17.46;88.45;97489.09;5114932;27;42225;-86
2023/09/22 00:35:00;;;;;;;0.50;0.50;;;;;;;17.47;88.17;97507.66;5132273;27;39535;-87
2023/09/22 00:37:28;;;;;;;0.33;0.33;;;;;;;17.52;88.80;97516.03;5117701;27;40621;-88
2023/09/22 00:39:56;;;;;;;0.40;0.40;;;;;;;17.51;88.85;97529.56;5118166;27;42817;-87
2023/09/22 00:42:25;;;;;;;0.40;0.40;;;;;;;17.40;88.90;97514.72;5117077;27;41816;-87
2023/09/22 00:44:53;;;;;;;2.20;0.60;;;;;;;17.38;89.36;97511.38;5117066;27;39074;-88
2023/09/22 00:47:21;;;;;;;0.47;0.47;;;;;;;17.31;89.75;97494.31;5117082;27;41907;-84
2023/09/22 00:49:50;;;;;;;0.40;0.40;;;;;;;17.36;90.32;97505.34;5116543;27;42771;-87
2023/09/22 00:52:19;;;;;;;0.40;0.40;;;;;;;17.35;90.17;97498.31;5117637;27;41991;-90
2023/09/22 00:54:48;;;;;;;0.97;0.50;;;;;;;17.33;90.06;97505.69;5116895;27;39707;-88
2023/09/22 00:57:17;;;;;;;0.83;0.60;;;;;;;17.36;90.52;97508.03;5117135;27;41883;-83
2023/09/22 00:59:48;;;;;;;0.73;0.37;;;;;;;17.38;90.42;97508.69;5116886;27;42148;-89
2023/09/22 01:02:15;;;;;;;0.60;0.60;;;;;;;17.44;90.54;97513.34;5134695;27;43033;-87
2023/09/22 01:04:43;;;;;;;1.17;0.67;;;;;;;17.33;90.01;97491.47;5116914;27;38772;-87
2023/09/22 01:07:10;;;;;;;1.00;0.67;;;;;;;17.49;89.60;97515.53;5117117;27;40875;-86
2023/09/22 01:09:38;;;;;;;0.43;0.43;;;;;;;17.38;89.37;97498.00;5116700;27;41943;-87
2023/09/22 01:12:06;;;;;;;0.50;0.50;;;;;;;17.35;89.65;97495.66;5133994;27;42393;-87
2023/09/22 01:14:34;;;;;;;1.57;0.97;;;;;;;17.27;90.88;97495.69;5117841;27;39882;-87
2023/09/22 01:17:03;;;;;;;0.60;0.60;;;;;;;17.24;91.23;97490.66;5135284;27;42453;-88
2023/09/22 01:19:30;;;;;;;0.50;0.50;;;;;;;17.24;90.92;97479.97;5117541;27;41589;-87
2023/09/22 01:21:59;;;;;;;0.40;0.40;;;;;;;17.22;90.70;97481.97;5117969;27;42257;-87
2023/09/22 01:24:27;;;;;;;1.53;0.60;;;;;;;17.29;91.20;97488.31;5117619;27;39021;-87
2023/09/22 01:26:55;;;;;;;0.73;0.73;;;;;;;17.28;90.61;97486.66;5117722;27;40717;-87
2023/09/22 01:29:23;;;;;;;0.60;0.50;;;;;;;17.27;90.77;97484.97;5117476;27;42776;-87
2023/09/22 01:31:51;;;;;;;0.87;0.70;;;;;;;17.11;90.83;97468.97;5117900;27;41103;-88
2023/09/22 01:34:20;;;;;;;1.27;0.70;;;;;;;17.16;91.17;97485.34;5117232;27;38938;-86
2023/09/22 01:36:48;;;;;;;1.30;0.63;;;;;;;17.11;90.77;97485.00;5117356;27;40807;-87
2023/09/22 01:39:17;;;;;;;0.57;0.57;;;;;;;17.18;90.68;97507.41;5135709;27;42549;-88
2023/09/22 01:41:45;;;;;;;0.80;0.60;;;;;;;17.22;91.50;97524.78;5116672;27;41514;-87
2023/09/22 01:44:13;;;;;;;0.60;0.60;;;;;;;17.09;91.26;97516.44;5115692;27;39105;-84
2023/09/22 01:46:40;;;;;;;0.60;0.60;;;;;;;17.16;90.72;97525.47;5115704;27;40679;-87
2023/09/22 01:49:08;;;;;;;0.57;0.57;;;;;;;17.07;90.37;97510.41;5116358;27;41665;-87
2023/09/22 01:51:38;;;;;;;0.63;0.60;;;;;;;17.08;90.06;97512.09;5116129;27;42413;-87
2023/09/22 01:54:06;;;;;;;0.50;0.50;;;;;;;17.07;89.73;97508.56;5115349;27;39975;-88
2023/09/22 01:56:35;;;;;;;0.50;0.50;;;;;;;17.01;89.94;97500.41;5133601;27;41743;-86
2023/09/22 01:59:03;;;;;;;0.67;0.60;;;;;;;17.11;90.17;97511.75;5115802;27;41773;-86
2023/09/22 02:01:31;;;;;;;0.70;0.60;;;;;;;17.01;89.33;97500.41;5133189;27;42999;-87
2023/09/22 02:03:59;;;;;;;1.53;0.60;;;;;;;17.09;89.02;97513.75;5115719;27;41446;-86
2023/09/22 02:06:26;;;;;;;0.60;0.60;;;;;;;16.99;88.94;97497.91;5115762;27;42027;-86
2023/09/22 02:08:55;;;;;;;0.67;0.50;;;;;;;17.06;88.96;97519.47;5115824;27;44954;-87
2023/09/22 02:11:23;;;;;;;0.70;0.60;;;;;;;17.00;88.85;97514.78;5115926;27;41528;-86
2023/09/22 02:13:52;;;;;;;1.60;0.67;;;;;;;16.82;89.15;97507.75;5116634;27;38780;-87
2023/09/22 02:16:20;;;;;;;0.73;0.70;;;;;;;16.64;88.82;97476.88;5116719;27;41414;-87
2023/09/22 02:18:47;;;;;;;3.07;0.60;;;;;;;16.98;88.91;97525.63;5116625;27;41466;-87
2023/09/22 02:21:17;;;;;;;0.83;0.60;;;;;;;16.90;88.41;97512.28;5116922;27;41100;-89
2023/09/22 02:23:45;;;;;;;1.13;0.73;;;;;;;16.89;88.34;97502.59;5116666;27;39175;-86
2023/09/22 02:26:12;;;;;;;1.47;0.60;;;;;;;16.87;88.00;97505.44;5134030;27;41734;-85
2023/09/22 02:28:40;;;;;;;1.70;0.70;;;;;;;16.87;87.95;97513.44;5116576;27;43324;-89
2023/09/22 02:31:09;;;;;;;0.83;0.60;;;;;;;16.98;88.19;97522.13;5134479;27;40832;-86
2023/09/22 02:33:37;;;;;;;0.90;0.70;;;;;;;16.87;88.05;97510.78;5116570;27;39215;-88
2023/09/22 02:36:06;;;;;;;0.70;0.60;;;;;;;16.89;87.63;97513.28;5130096;27;40590;-86
2023/09/22 02:38:34;;;;;;;1.23;0.70;;;;;;;16.67;87.49;97488.06;5139119;27;42884;-85
2023/09/22 02:41:02;;;;;;;0.70;0.63;;;;;;;16.82;87.67;97521.13;5119338;27;42245;-87
2023/09/22 02:43:30;;;;;;;0.63;0.60;;;;;;;16.84;87.35;97535.16;5098948;27;39621;-87
2023/09/22 02:45:58;;;;;;;0.40;0.40;;;;;;;16.79;87.22;97536.69;5115651;27;42055;-85
2023/09/22 02:48:27;;;;;;;0.97;0.70;;;;;;;16.76;86.99;97537.03;5115048;27;41695;-85
2023/09/22 02:50:54;;;;;;;0.60;0.43;;;;;;;16.71;87.30;97532.16;5115007;27;41154;-85
2023/09/22 02:53:22;;;;;;;2.10;0.83;;;;;;;16.67;86.89;97530.84;5114557;27;41274;-86
2023/09/22 02:55:50;;;;;;;1.17;0.60;;;;;;;16.60;87.64;97519.09;5132462;27;40687;-87
2023/09/22 02:58:17;;;;;;;1.27;0.60;;;;;;;16.58;86.92;97520.25;5114429;27;42703;-86
2023/09/22 03:00:45;;;;;;;0.60;0.57;;;;;;;16.59;87.24;97517.41;5131906;27;41316;-86
2023/09/22 03:03:13;;;;;;;0.70;0.60;;;;;;;16.57;87.36;97519.41;5132072;27;39780;-88
2023/09/22 03:05:42;;;;;;;0.90;0.63;;;;;;;16.53;86.84;97521.59;5115544;27;40835;-87
2023/09/22 03:08:10;;;;;;;1.60;0.70;;;;;;;16.49;86.50;97512.25;5117232;27;41663;-87
2023/09/22 03:10:39;;;;;;;0.50;0.50;;;;;;;16.50;86.53;97518.44;5118933;27;41265;-86
2023/09/22 03:13:07;;;;;;;0.63;0.50;;;;;;;16.46;86.40;97519.75;5119485;27;39025;-85
2023/09/22 03:15:35;;;;;;;0.73;0.63;;;;;;;16.49;86.59;97532.78;5136568;27;40685;-85
2023/09/22 03:18:04;;;;;;;0.63;0.60;;;;;;;16.57;86.48;97551.50;5119321;27;41919;-86
2023/09/22 03:20:31;;;;;;;0.50;0.50;;;;;;;16.45;86.35;97542.97;5119558;27;42067;-86
2023/09/22 03:23:01;;;;;;;0.93;0.50;;;;;;;16.47;86.20;97553.47;5119051;27;39335;-85
2023/09/22 03:25:28;;;;;;;0.60;0.60;;;;;;;16.56;86.06;97581.09;5119786;27;41690;-84
2023/09/22 03:27:56;;;;;;;0.60;0.47;;;;;;;16.38;86.07;97552.66;5119744;27;44568;-84
2023/09/22 03:30:24;;;;;;;0.60;0.60;;;;;;;16.39;86.25;97553.47;5118036;27;42767;-87
2023/09/22 03:32:52;;;;;;;0.50;0.50;;;;;;;16.46;85.89;97575.84;5115657;27;39052;-86
2023/09/22 03:35:21;;;;;;;0.60;0.60;;;;;;;16.44;85.67;97567.19;5115337;27;41332;-86
2023/09/22 03:37:48;;;;;;;0.70;0.50;;;;;;;16.40;85.68;97563.16;5115111;27;42180;-87
2023/09/22 03:40:23;;;;;;;0.60;0.60;;;;;;;16.45;85.65;97574.19;5132575;27;42128;-86
2023/09/22 03:42:51;;;;;;;1.20;0.50;;;;;;;16.44;85.29;97577.88;5113487;27;39846;-86
2023/09/22 03:45:19;;;;;;;0.67;0.60;;;;;;;16.54;85.09;97599.94;5114374;27;41556;-84
2023/09/22 03:47:46;;;;;;;0.50;0.50;;;;;;;16.48;84.99;97581.88;5114020;27;41533;-85
2023/09/22 03:50:14;;;;;;;1.00;0.80;;;;;;;16.48;85.57;97571.19;5114404;27;41243;-87
2023/09/22 03:52:43;;;;;;;0.60;0.60;;;;;;;16.51;85.54;97568.19;5132272;27;40037;-83
2023/09/22 03:55:11;;;;;;;0.70;0.60;;;;;;;16.53;85.47;97564.38;5114291;27;42011;-84
2023/09/22 03:57:40;;;;;;;1.23;0.50;;;;;;;16.41;85.69;97543.47;5114305;27;41892;-85
2023/09/22 04:00:18;;;;;;;0.80;0.50;;;;;;;16.51;85.82;97557.50;5114318;27;41039;-85
2023/09/22 04:02:46;;;;;;;0.60;0.50;;;;;;;16.39;85.80;97553.47;5112149;27;40156;-87
2023/09/22 04:05:13;;;;;;;0.70;0.70;;;;;;;16.38;85.48;97558.00;5114351;27;40554;-87
2023/09/22 04:07:41;;;;;;;0.80;0.57;;;;;;;16.37;85.67;97556.31;5113928;27;43358;-87
2023/09/22 04:10:10;;;;;;;1.07;0.70;;;;;;;16.47;85.59;97569.50;5114897;27;41169;-84
2023/09/22 04:12:37;;;;;;;0.50;0.50;;;;;;;16.47;85.08;97550.81;5134965;27;39160;-85
2023/09/22 04:15:09;;;;;;;0.57;0.50;;;;;;;16.11;85.24;97478.97;5136025;27;41823;-86
2023/09/22 04:17:38;;;;;;;0.53;0.50;;;;;;;16.24;84.88;97491.00;5118990;27;41373;-84
2023/09/22 04:20:08;;;;;;;0.90;0.67;;;;;;;16.36;85.52;97505.72;5118617;27;41328;-84
2023/09/22 04:22:35;;;;;;;0.80;0.80;;;;;;;16.42;85.50;97521.94;5118481;27;39126;-85
2023/09/22 04:25:10;;;;;;;0.83;0.53;;;;;;;16.33;85.26;97538.94;5118515;27;40860;-86
2023/09/22 04:27:43;;;;;;;1.70;0.77;;;;;;;16.33;85.48;97554.13;5132727;27;43514;-88
2023/09/22 04:30:15;;;;;;;0.53;0.53;;;;;;;16.39;85.25;97580.19;5133453;27;43434;-87
2023/09/22 04:32:43;;;;;;;0.70;0.60;;;;;;;16.39;85.72;97590.88;5135126;27;41006;-85
2023/09/22 04:35:11;;;;;;;0.93;0.70;;;;;;;16.37;85.26;97599.06;5118298;27;40980;-84
2023/09/22 04:37:40;;;;;;;0.87;0.70;;;;;;;16.39;85.46;97596.22;5118241;27;41820;-84
2023/09/22 04:40:20;;;;;;;0.83;0.80;;;;;;;16.21;85.24;97576.78;5118278;27;41097;-84
2023/09/22 04:42:48;;;;;;;0.80;0.80;;;;;;;16.38;85.16;97615.94;5116710;27;40177;-88
2023/09/22 04:45:19;;;;;;;1.60;0.60;;;;;;;16.30;85.30;97623.94;5117013;27;41004;-86
2023/09/22 04:47:47;;;;;;;0.60;0.60;;;;;;;16.33;85.45;97629.75;5116881;27;41600;-85
2023/09/22 04:50:16;;;;;;;0.67;0.67;;;;;;;16.37;85.55;97630.28;5116885;27;42276;-85
2023/09/22 04:52:45;;;;;;;0.83;0.83;;;;;;;16.33;85.48;97639.63;5117029;27;38938;-87
2023/09/22 04:55:12;;;;;;;0.60;0.50;;;;;;;16.31;85.77;97644.31;5134168;27;41067;-89
2023/09/22 04:57:40;;;;;;;2.07;0.97;;;;;;;16.25;87.06;97645.78;5116396;27;42777;-85
2023/09/22 05:00:13;;;;;;;0.97;0.70;;;;;;;16.22;86.37;97645.25;5134281;27;42305;-83
2023/09/22 05:02:43;;;;;;;2.33;0.80;;;;;;;16.24;86.12;97638.75;5130730;27;40239;-85
2023/09/22 05:05:11;;;;;;;1.40;0.80;;;;;;;16.33;86.36;97620.91;5133917;27;41999;-84
2023/09/22 05:07:39;;;;;;;0.70;0.70;;;;;;;16.24;86.26;97609.38;5133639;27;42091;-85
2023/09/22 05:10:07;;;;;;;1.10;0.90;;;;;;;16.26;86.11;97606.53;5133993;27;42154;-85
2023/09/22 05:12:35;;;;;;;1.70;0.70;;;;;;;16.35;85.81;97602.88;5116886;27;39965;-85
2023/09/22 05:15:04;;;;;;;0.60;0.60;;;;;;;16.31;85.57;97574.84;5117511;27;41241;-87
2023/09/22 05:17:32;;;;;;;0.73;0.73;;;;;;;16.29;85.48;97585.69;5134812;27;43819;-85
2023/09/22 05:20:03;;;;;;;1.63;0.80;;;;;;;16.39;85.47;97614.94;5116843;27;41379;-87
2023/09/22 05:22:31;;;;;;;0.90;0.90;;;;;;;16.29;85.38;97607.06;5134227;27;40967;-87
2023/09/22 05:24:59;;;;;;;0.77;0.77;;;;;;;16.30;85.53;97616.75;5117047;27;41873;-87
2023/09/22 05:27:26;;;;;;;1.10;0.80;;;;;;;16.37;85.35;97636.47;5117428;27;43152;-85
2023/09/22 05:29:54;;;;;;;0.80;0.80;;;;;;;16.13;85.87;97607.00;5116999;27;41392;-87
2023/09/22 05:32:21;;;;;;;1.00;0.83;;;;;;;16.37;85.61;97651.66;5134494;27;40904;-86
2023/09/22 05:34:51;;;;;;;1.03;0.80;;;;;;;16.28;85.43;97652.63;5134389;27;41713;-89
2023/09/22 05:37:21;;;;;;;1.27;0.90;;;;;;;16.30;85.53;97664.00;5134752;27;43735;-87
2023/09/22 05:39:49;;;;;;;1.33;0.80;;;;;;;16.17;85.44;97649.25;5117782;27;42586;-87
2023/09/22 05:42:16;;;;;;;0.63;0.63;;;;;;;16.38;85.50;97674.72;5116045;27;40040;-85
2023/09/22 05:44:44;;;;;;;0.87;0.77;;;;;;;16.37;85.57;97647.16;5107980;28;41163;-85
2023/09/22 05:47:12;;;;;;;1.83;0.90;;;;;;;16.31;85.13;97614.91;5095157;28;41673;-81
2023/09/22 05:49:40;;;;;;;0.77;0.70;;;;;;;16.43;85.17;97627.81;5111920;28;42771;-79
2023/09/22 05:52:07;;;;;;;1.33;0.90;;;;;;;16.46;84.72;97629.31;5123467;28;40368;-81
2023/09/22 05:54:36;;;;;;;1.10;1.00;;;;;;;16.37;84.70;97620.44;5128775;27;40998;-82
2023/09/22 05:57:04;;;;;;;2.20;0.90;;;;;;;16.46;84.74;97629.31;5132809;27;42240;-83
2023/09/22 05:59:32;;;;;;;0.90;0.90;;;;;;;16.23;84.57;97596.16;5132403;27;42386;-87
2023/09/22 06:02:00;;;;;;;0.70;0.70;;;;;;;16.48;84.41;97632.66;5132662;27;38899;-84
2023/09/22 06:04:29;;;;;;;1.20;1.03;;;;;;;16.57;84.09;97646.91;5114967;27;41317;-83
2023/09/22 06:06:56;;;;;;;1.63;0.83;;;;;;;16.60;84.50;97652.72;5131811;27;41847;-80
2023/09/22 06:09:24;;;;;;;1.13;1.03;;;;;;;16.53;84.03;97649.06;5131760;27;43193;-84
2023/09/22 06:11:53;;;;;;;2.10;0.90;;;;;;;16.64;84.66;97666.66;5115571;27;40977;-85
2023/09/22 06:14:21;;;;;;;0.63;0.60;;;;;;;16.55;84.23;97648.91;5115463;27;41114;-80
2023/09/22 06:16:49;;;;;;;0.80;0.80;;;;;;;16.59;84.73;97661.75;5132804;27;42866;-79
2023/09/22 06:19:16;;;;;;;1.37;1.00;;;;;;;16.56;84.74;97661.25;5132400;27;41106;-79
2023/09/22 06:21:44;;;;;;;2.63;1.00;;;;;;;16.61;84.27;97681.13;5132773;27;40017;-77
2023/09/22 06:24:11;;;;;;;1.63;0.80;;;;;;;16.68;84.31;97708.94;5131805;27;41459;-78
2023/09/22 06:26:39;;;;;;;0.80;0.73;;;;;;;16.61;84.34;97707.03;5134852;27;43069;-79
2023/09/22 06:29:09;;;;;;;1.00;0.90;;;;;;;16.70;83.74;97722.97;5150427;27;41950;-79
2023/09/22 06:31:38;;;;;;;1.37;1.27;;;;;;;16.62;83.97;97708.72;5115543;27;38694;-78
2023/09/22 06:34:07;;;;;;;0.90;0.90;;;;;;;16.74;83.61;97732.34;5131717;27;41745;-77
2023/09/22 06:36:34;;;;;;;2.03;1.00;;;;;;;16.77;83.77;97721.34;5131983;27;43482;-78
2023/09/22 06:39:07;;;;;;;1.00;0.90;;;;;;;16.78;84.04;97722.16;5115119;27;41231;-80
2023/09/22 06:41:36;;;;;;;1.07;1.00;;;;;;;16.69;84.34;97726.63;5115028;27;39162;-79
2023/09/22 06:44:06;;;;;;;2.53;1.00;;;;;;;16.77;83.94;97729.34;5130587;27;41788;-80
2023/09/22 06:46:35;;;;;;;1.20;1.00;;;;;;;16.74;83.99;97735.00;5113830;27;41826;-79
2023/09/22 06:49:04;;;;;;;1.30;1.20;;;;;;;16.78;84.03;97741.72;5131257;27;43353;-79
2023/09/22 06:51:33;;;;;;;2.70;0.90;;;;;;;16.81;84.31;97736.03;5131033;27;39467;-81
2023/09/22 06:54:00;;;;;;;1.97;1.10;;;;;;;16.84;84.00;97746.41;5131250;27;42806;-79
2023/09/22 06:56:28;;;;;;;1.10;1.00;;;;;;;16.82;84.07;97735.03;5130923;27;44339;-80
2023/09/22 06:58:56;;;;;;;1.17;0.97;;;;;;;16.64;83.87;97699.56;5131421;27;42445;-80
2023/09/22 07:01:23;;;;;;;1.40;0.90;;;;;;;16.96;83.70;97751.44;5131316;27;41094;-81
2023/09/22 07:03:53;;;;;;;1.17;0.80;;;;;;;16.94;83.93;97751.63;5115328;27;20222;-84
2023/09/22 07:06:22;;;;;;;1.43;0.90;;;;;;;17.04;84.07;97763.03;5130908;27;41711;-84
2023/09/22 07:08:49;;;;;;;1.17;0.90;;;;;;;17.05;83.58;97753.16;5131693;27;42374;-84
2023/09/22 07:11:18;;;;;;;0.83;0.83;;;;;;;17.07;83.34;97751.16;5113859;27;39332;-84
2023/09/22 07:13:46;;;;;;;2.43;0.90;;;;;;;17.12;83.24;97751.50;5132244;27;40785;-82
2023/09/22 07:16:13;;;;;;;1.63;1.13;;;;;;;17.28;83.25;97770.28;5114920;27;41993;-81
2023/09/22 07:18:41;;;;;;;0.77;0.73;;;;;;;17.22;83.16;97757.53;5114980;27;42405;-82
2023/09/22 07:21:10;;;;;;;0.97;0.90;;;;;;;17.24;83.52;97755.53;5114539;27;38777;-78
2023/09/22 07:23:38;;;;;;;1.57;0.80;;;;;;;17.34;83.63;97766.94;5131783;27;42498;-78
2023/09/22 07:26:08;;;;;;;0.70;0.70;;;;;;;17.36;83.59;97764.94;5129285;27;43284;-78
2023/09/22 07:28:36;;;;;;;1.40;1.00;;;;;;;17.41;83.52;97780.50;5130840;27;42923;-77
2023/09/22 07:31:12;;;;;;;1.10;0.70;;;;;;;17.45;83.10;97796.06;5113304;27;39095;-77
2023/09/22 07:33:39;;;;;;;0.73;0.60;;;;;;;17.48;82.99;97787.69;5128936;27;42499;-81
2023/09/22 07:36:08;;;;;;;0.70;0.70;;;;;;;17.44;82.75;97783.66;5130108;27;42811;-81
2023/09/22 07:38:37;;;;;;;0.80;0.80;;;;;;;17.60;82.76;97815.81;5113669;27;41329;-83
2023/09/22 07:41:05;;;;;;;1.33;1.00;;;;;;;17.64;82.55;97816.38;5113751;27;39086;-81
2023/09/22 07:43:33;;;;;;;0.70;0.70;;;;;;;17.71;82.62;97813.84;5113436;27;40413;-81
2023/09/22 07:46:04;;;;;;;2.00;0.90;;;;;;;17.76;82.09;97806.16;5133189;27;41991;-85
2023/09/22 07:48:31;;;;;;;0.60;0.60;;;;;;;17.83;81.89;97797.28;5131958;27;42212;-79
2023/09/22 07:51:00;;;;;;;1.57;0.80;;;;;;;17.88;81.76;97770.00;5117556;27;39909;-82
2023/09/22 07:53:27;;;;;;;0.83;0.83;;;;;;;18.41;81.40;97782.00;5116619;27;40587;-80
2023/09/22 07:55:59;;;;;;;0.87;0.60;;;;;;;18.93;80.55;97750.97;5116966;27;41961;-80
2023/09/22 07:58:27;;;;;;;1.50;0.80;;;;;;;19.28;79.65;97751.47;5116248;27;41368;-79
2023/09/22 08:00:54;;;;;;;1.00;0.80;;;;;;;19.35;76.95;97768.53;5134428;27;38929;-80
2023/09/22 08:03:22;;;;;;;1.70;0.60;;;;;;;19.27;77.46;97750.66;5133686;27;43551;-80
2023/09/22 08:05:50;;;;;;;0.97;0.73;;;;;;;19.35;77.01;97752.44;5117009;27;42695;-81
2023/09/22 08:08:18;;;;;;;2.37;0.83;;;;;;;19.38;77.38;97744.03;5115882;27;41515;-81
2023/09/22 08:10:45;;;;;;;0.70;0.70;;;;;;;19.38;77.01;97741.34;5133835;27;39766;-84
2023/09/22 08:13:15;;;;;;;1.87;0.90;;;;;;;19.50;76.62;97768.66;5135282;27;41925;-86
2023/09/22 08:15:43;;;;;;;1.73;0.60;;;;;;;19.58;76.40;97780.16;5135120;27;42713;-81
2023/09/22 08:18:10;;;;;;;0.83;0.70;;;;;;;19.41;75.87;97762.44;5135632;27;43025;-83
2023/09/22 08:20:39;;;;;;;1.27;0.80;;;;;;;19.31;75.45;97756.47;5117721;27;39935;-84
2023/09/22 08:23:06;;;;;;;1.03;0.60;;;;;;;19.41;75.61;97775.88;5134608;27;40777;-88
2023/09/22 08:25:38;;;;;;;1.03;0.70;;;;;;;19.39;75.03;97775.22;5134822;27;43578;-86
2023/09/22 08:28:06;;;;;;;1.63;0.73;;;;;;;19.50;74.57;97782.91;5133179;27;42490;-85
2023/09/22 08:30:35;;;;;;;0.87;0.70;;;;;;;19.77;74.07;97794.13;5117985;27;39070;-80
2023/09/22 08:33:02;;;;;;;1.37;0.60;;;;;;;20.06;73.59;97799.59;5135058;27;41737;-82
2023/09/22 08:35:30;;;;;;;0.80;0.80;;;;;;;20.25;73.27;97799.09;5135384;27;43808;-80
2023/09/22 08:38:00;;;;;;;0.70;0.70;;;;;;;20.37;71.51;97808.41;5116302;27;43172;-80
2023/09/22 08:40:28;;;;;;;1.17;0.97;;;;;;;20.56;71.02;97816.97;5132873;27;39824;-78
2023/09/22 08:42:57;;;;;;;0.80;0.70;;;;;;;20.77;70.67;97793.66;5132638;27;40733;-81
2023/09/22 08:45:25;;;;;;;1.17;0.50;;;;;;;21.04;69.18;97820.94;5115848;27;41373;-80
2023/09/22 08:47:54;;;;;;;1.33;0.80;;;;;;;21.17;69.03;97805.81;5134171;27;42432;-79
2023/09/22 08:50:21;;;;;;;0.70;0.50;;;;;;;21.40;68.86;97821.00;5132613;27;39963;-80
2023/09/22 08:52:52;;;;;;;0.70;0.70;;;;;;;21.31;67.20;97811.38;5133670;27;41842;-79
2023/09/22 08:55:21;;;;;;;0.67;0.63;;;;;;;21.25;67.19;97831.00;5131160;27;42792;-81
2023/09/22 08:57:49;;;;;;;0.93;0.63;;;;;;;20.93;66.10;97838.41;5131136;27;40793;-81
2023/09/22 09:00:20;;;;;;;0.83;0.60;;;;;;;20.70;66.93;97834.97;5132873;27;39026;-79
2023/09/22 09:02:48;;;;;;;1.90;0.60;;;;;;;20.45;66.98;97837.06;5114772;27;41014;-78
2023/09/22 09:05:21;;;;;;;1.20;0.80;;;;;;;20.15;67.74;97814.66;5132423;27;42958;-78
2023/09/22 09:07:50;;;;;;;1.40;0.70;;;;;;;20.15;68.25;97822.72;5119880;27;41756;-78
2023/09/22 09:10:29;;;;;;;0.80;0.80;;;;;;;20.01;68.19;97769.75;5137988;27;40323;-78
2023/09/22 09:13:01;;;;;;;1.90;0.60;;;;;;;20.18;67.67;97792.75;5115895;27;41933;-76
2023/09/22 09:15:29;;;;;;;0.80;0.50;;;;;;;20.27;67.74;97797.06;5129882;27;42605;-77
2023/09/22 09:18:05;;;;;;;0.70;0.70;;;;;;;20.39;67.12;97801.00;5115047;27;41455;-77
2023/09/22 09:20:35;;;;;;;0.63;0.50;;;;;;;20.47;66.39;97818.91;5132263;27;38906;-77
2023/09/22 09:23:13;;;;;;;1.13;0.70;;;;;;;20.42;66.96;97810.53;5129671;27;41540;-78
2023/09/22 09:25:43;;;;;;;0.87;0.57;;;;;;;20.44;66.84;97803.13;5132255;27;43057;-79
2023/09/22 09:28:12;;;;;;;2.67;1.10;;;;;;;20.34;66.38;97787.22;5116000;27;41435;-79
2023/09/22 09:30:51;;;;;;;1.33;0.70;;;;;;;20.43;66.14;97822.97;5134105;27;41075;-78
2023/09/22 09:33:21;;;;;;;0.57;0.53;;;;;;;20.25;66.35;97809.84;5099324;27;41263;-83
2023/09/22 09:35:50;;;;;;;0.80;0.63;;;;;;;20.28;66.51;97814.84;5115478;27;42849;-84
2023/09/22 09:38:18;;;;;;;0.90;0.70;;;;;;;20.06;65.88;97802.28;5132909;27;42774;-78
2023/09/22 09:40:46;;;;;;;1.00;0.80;;;;;;;20.08;66.61;97824.44;5133111;27;39951;-84
2023/09/22 09:43:15;;;;;;;0.60;0.60;;;;;;;19.99;67.02;97822.84;5132546;27;42230;-81
2023/09/22 09:45:46;;;;;;;1.27;0.80;;;;;;;19.87;67.60;97817.06;5132058;27;42202;-83
2023/09/22 09:48:18;;;;;;;0.70;0.70;;;;;;;19.86;68.72;97817.22;5131995;27;42628;-83
2023/09/22 09:50:50;;;;;;;1.07;0.57;;;;;;;19.89;68.77;97819.56;5132782;27;40190;-82
2023/09/22 09:53:26;;;;;;;0.93;0.50;;;;;;;19.97;68.66;97827.56;5114551;27;40757;-84
2023/09/22 09:55:58;;;;;;;1.10;0.70;;;;;;;19.96;69.11;97831.25;5111888;27;41751;-83
2023/09/22 09:58:31;;;;;;;1.07;0.50;;;;;;;20.02;68.51;97838.63;5126155;27;42481;-82
2023/09/22 10:00:59;;;;;;;0.83;0.53;;;;;;;20.07;68.50;97830.81;5128553;27;40654;-83
2023/09/22 10:03:27;;;;;;;0.70;0.70;;;;;;;20.14;67.75;97839.03;5131770;27;40649;-83
2023/09/22 10:05:59;;;;;;;0.77;0.63;;;;;;;20.23;68.00;97846.81;5114657;27;41944;-86
2023/09/22 10:08:28;;;;;;;1.03;0.90;;;;;;;20.26;67.37;97832.19;5114314;27;42584;-80
2023/09/22 10:10:58;;;;;;;0.67;0.60;;;;;;;20.34;67.44;97826.72;5114629;27;40084;-80
2023/09/22 10:13:26;;;;;;;1.10;0.70;;;;;;;20.62;65.62;97837.75;5112041;28;40643;-81
2023/09/22 10:15:57;;;;;;;1.63;0.70;;;;;;;20.68;65.33;97821.69;5112151;28;42838;-80
2023/09/22 10:18:45;;;;;;;0.50;0.50;;;;;;;20.87;64.59;97849.94;5114019;27;42422;-81
2023/09/22 10:21:44;;;;;;;0.70;0.63;;;;;;;20.88;64.44;97851.59;5116186;27;39899;-83
2023/09/22 10:24:16;;;;;;;2.00;0.53;;;;;;;20.89;64.77;97847.91;5111222;28;41775;-82
2023/09/22 10:27:09;;;;;;;1.50;0.60;;;;;;;20.98;65.10;97840.56;5097209;27;43264;-78
2023/09/22 10:29:54;;;;;;;0.77;0.50;;;;;;;21.01;64.38;97832.94;5115082;27;42379;-86
2023/09/22 10:32:27;;;;;;;1.67;0.80;;;;;;;21.07;63.49;97829.50;5112398;27;39523;-85
2023/09/22 10:34:57;;;;;;;1.27;0.70;;;;;;;21.07;62.70;97826.81;5132932;27;40930;-84
2023/09/22 10:37:28;;;;;;;1.13;0.90;;;;;;;21.24;62.49;97837.41;5115580;27;42658;-85
2023/09/22 10:39:57;;;;;;;1.23;0.70;;;;;;;21.26;62.33;97840.75;5115785;27;41323;-86
2023/09/22 10:42:27;;;;;;;1.97;0.70;;;;;;;21.36;62.17;97846.66;5115125;27;38646;-84
2023/09/22 10:44:59;;;;;;;0.87;0.63;;;;;;;21.41;62.63;97849.63;5115462;27;42306;-85
2023/09/22 10:47:37;;;;;;;0.87;0.60;;;;;;;21.39;63.08;97835.50;5129452;27;42817;-85
2023/09/22 10:50:12;;;;;;;0.87;0.70;;;;;;;21.44;62.50;97841.16;5133245;27;44839;-84
2023/09/22 10:52:42;;;;;;;1.23;0.77;;;;;;;21.47;61.92;97838.09;5115466;27;38788;-85
2023/09/22 10:55:13;;;;;;;0.77;0.70;;;;;;;21.46;61.46;97828.34;5094976;28;41601;-84
2023/09/22 10:57:43;;;;;;;0.37;0.37;;;;;;;21.58;61.86;97839.47;5077730;28;41952;-86
2023/09/22 11:00:13;;;;;;;0.53;0.50;;;;;;;21.67;61.40;97844.53;5093919;28;41791;-86
2023/09/22 11:02:41;;;;;;;0.50;0.50;;;;;;;21.89;59.83;97866.94;5074630;28;39724;-85
2023/09/22 11:05:11;;;;;;;0.50;0.50;;;;;;;21.93;58.61;97870.09;5075097;28;40658;-85
2023/09/22 11:07:42;;;;;;;0.77;0.70;;;;;;;22.02;58.52;97879.75;5073415;28;43067;-85
2023/09/22 11:10:17;;;;;;;0.90;0.70;;;;;;;21.98;58.36;97886.56;5088876;28;43229;-82
2023/09/22 11:12:48;;;;;;;1.20;0.70;;;;;;;21.82;57.99;97864.19;5074627;28;40788;-86
2023/09/22 11:15:16;;;;;;;0.93;0.60;;;;;;;21.77;58.34;97842.38;5074499;28;41055;-83
2023/09/22 11:17:46;;;;;;;0.50;0.50;;;;;;;21.90;58.35;97835.44;5074656;28;41994;-83
2023/09/22 11:20:18;;;;;;;0.73;0.70;;;;;;;22.11;57.85;97857.06;5090679;28;41642;-83
2023/09/22 11:22:47;;;;;;;0.90;0.47;;;;;;;22.28;57.74;97871.94;5089448;28;39967;-78
2023/09/22 11:25:15;;;;;;;0.50;0.40;;;;;;;22.10;57.53;97836.50;5078140;28;40888;-79
2023/09/22 11:27:47;;;;;;;0.50;0.50;;;;;;;22.47;56.25;97876.69;5111979;28;43846;-82
2023/09/22 11:30:17;;;;;;;1.13;0.57;;;;;;;22.80;55.17;97879.66;5092255;28;41297;-81
2023/09/22 11:32:46;;;;;;;1.20;0.40;;;;;;;23.43;54.04;97890.41;5076651;28;38892;-83
2023/09/22 11:35:37;;;;;;;0.30;0.30;;;;;;;23.53;52.39;97899.00;5074761;28;40980;-81
2023/09/22 11:38:31;;;;;;;0.33;0.33;;;;;;;24.03;50.86;97913.13;5108008;28;43552;-81
2023/09/22 11:41:10;;;;;;;1.23;0.53;;;;;;;24.36;49.89;97897.81;5073973;28;41976;-81
2023/09/22 11:43:39;;;;;;;0.50;0.30;;;;;;;24.72;48.55;97907.44;5092507;28;39060;-80